Time;durP1;ratioP1;P1;durP2;ratioP2;P2;SDS_P1;SDS_P2;PMS_P1;PMS_P2;Temp;Humidity;BMP_temperature;BMP_pressure;BME280_temperature;BME280_humidity;BME280_pressure;Samples;Min_cycle;Max_cycle;Signal;HPM_P1;HPM_P2
2022/03/26 00:00:36;;;;;;;18.77;13.80;;;6.60;99.90;;;;;;4998977;28;20157;-59
2022/03/26 00:03:04;;;;;;;20.73;13.50;;;6.60;99.90;;;;;;5000748;28;20252;-60
2022/03/26 00:05:31;;;;;;;17.45;13.82;;;6.50;99.90;;;;;;4999682;28;20148;-60
2022/03/26 00:07:58;;;;;;;19.38;13.60;;;6.50;99.90;;;;;;5000448;28;20500;-59
2022/03/26 00:10:25;;;;;;;18.23;13.25;;;6.50;99.90;;;;;;4999504;28;20424;-59
2022/03/26 00:12:52;;;;;;;18.67;13.48;;;6.40;99.90;;;;;;5000536;28;20439;-59
2022/03/26 00:15:20;;;;;;;18.20;13.18;;;6.40;99.90;;;;;;5000006;28;20046;-59
2022/03/26 00:17:46;;;;;;;18.92;13.60;;;6.40;99.90;;;;;;5000412;28;20725;-59
2022/03/26 00:20:13;;;;;;;18.63;12.63;;;6.50;99.90;;;;;;5000205;28;20100;-59
2022/03/26 00:22:40;;;;;;;16.20;12.57;;;6.50;99.90;;;;;;4999910;28;20141;-59
2022/03/26 00:25:07;;;;;;;17.67;12.85;;;6.30;99.90;;;;;;5012903;28;20572;-59
2022/03/26 00:27:34;;;;;;;16.77;12.38;;;6.20;99.90;;;;;;5019704;28;20140;-59
2022/03/26 00:30:03;;;;;;;18.25;13.05;;;6.20;99.90;;;;;;5020731;28;20105;-59
2022/03/26 00:32:31;;;;;;;17.13;12.30;;;6.20;99.90;;;;;;5019689;28;20061;-60
2022/03/26 00:34:57;;;;;;;16.88;13.02;;;6.20;99.90;;;;;;5020183;28;20579;-59
2022/03/26 00:37:24;;;;;;;17.50;12.50;;;6.20;99.90;;;;;;5020538;28;20064;-58
2022/03/26 00:39:51;;;;;;;17.40;13.68;;;6.10;99.90;;;;;;5020001;28;20147;-61
2022/03/26 00:42:18;;;;;;;18.02;13.07;;;6.00;99.90;;;;;;5022415;28;20057;-61
2022/03/26 00:44:45;;;;;;;16.52;12.95;;;6.00;99.90;;;;;;5021837;28;20727;-62
2022/03/26 00:47:12;;;;;;;16.95;12.30;;;6.10;99.90;;;;;;5022007;28;20484;-61
2022/03/26 00:49:38;;;;;;;18.63;13.68;;;6.10;99.90;;;;;;5021867;28;20132;-61
2022/03/26 00:52:05;;;;;;;18.52;13.25;;;6.10;99.90;;;;;;5021275;28;20203;-61
2022/03/26 00:54:32;;;;;;;18.02;13.15;;;6.20;99.90;;;;;;5018978;28;20073;-59
2022/03/26 00:56:59;;;;;;;19.88;13.85;;;6.10;99.90;;;;;;5021946;28;20085;-58
2022/03/26 00:59:26;;;;;;;18.02;12.93;;;6.10;99.90;;;;;;5022006;28;20133;-59
2022/03/26 01:01:53;;;;;;;17.75;12.30;;;6.10;99.90;;;;;;5014501;28;20046;-61
2022/03/26 01:04:19;;;;;;;17.85;13.20;;;6.10;99.90;;;;;;5020998;28;20049;-62
2022/03/26 01:06:46;;;;;;;18.58;13.43;;;6.10;99.90;;;;;;5019199;28;20123;-61
2022/03/26 01:09:13;;;;;;;17.85;13.13;;;6.00;99.90;;;;;;5002617;28;20089;-61
2022/03/26 01:11:40;;;;;;;19.30;13.25;;;6.00;99.90;;;;;;5002140;28;20136;-61
2022/03/26 01:14:06;;;;;;;18.77;13.15;;;6.00;99.90;;;;;;5003376;28;20096;-61
2022/03/26 01:16:33;;;;;;;18.92;13.52;;;6.00;99.90;;;;;;5002006;28;20129;-59
2022/03/26 01:19:00;;;;;;;17.85;12.55;;;6.00;99.90;;;;;;5030518;28;20536;-58
2022/03/26 01:21:27;;;;;;;17.38;12.05;;;5.90;99.90;;;;;;5000768;28;20506;-59
2022/03/26 01:23:53;;;;;;;18.65;13.15;;;5.90;99.90;;;;;;5008366;28;20124;-59
2022/03/26 01:26:20;;;;;;;18.55;12.65;;;5.80;99.90;;;;;;5007618;28;20461;-59
2022/03/26 01:28:47;;;;;;;17.48;13.13;;;5.90;99.90;;;;;;5002408;28;20078;-61
2022/03/26 01:31:19;;;;;;;20.58;13.95;;;5.80;99.90;;;;;;5001837;28;20140;-61
2022/03/26 01:33:47;;;;;;;17.67;12.50;;;5.90;99.90;;;;;;5001201;28;20434;-59
2022/03/26 01:36:14;;;;;;;17.70;12.88;;;5.80;99.90;;;;;;5001585;28;20080;-59
2022/03/26 01:38:41;;;;;;;18.85;12.00;;;5.70;99.90;;;;;;4999213;28;20081;-59
2022/03/26 01:41:08;;;;;;;19.60;13.52;;;5.80;99.90;;;;;;5001653;28;20497;-59
2022/03/26 01:43:35;;;;;;;18.05;12.55;;;5.70;99.90;;;;;;5002731;28;20129;-59
2022/03/26 01:46:01;;;;;;;19.08;12.60;;;5.70;99.90;;;;;;5001242;28;20188;-58
2022/03/26 01:48:28;;;;;;;17.52;12.43;;;5.70;99.90;;;;;;5002681;28;20248;-58
2022/03/26 01:50:55;;;;;;;16.40;11.80;;;5.60;99.90;;;;;;5002350;28;20092;-59
2022/03/26 01:53:22;;;;;;;16.42;12.05;;;5.60;99.90;;;;;;5001838;28;20699;-58
2022/03/26 01:55:49;;;;;;;16.85;12.15;;;5.60;99.90;;;;;;5007199;28;20505;-58
2022/03/26 01:58:15;;;;;;;18.90;13.60;;;5.60;99.90;;;;;;5019820;28;20137;-58
2022/03/26 02:00:42;;;;;;;13.73;10.52;;;5.60;99.90;;;;;;5020015;28;20195;-59
2022/03/26 02:03:10;;;;;;;17.90;13.20;;;5.50;99.90;;;;;;5019899;28;20041;-59
2022/03/26 02:05:37;;;;;;;16.00;11.73;;;5.40;99.90;;;;;;5019234;28;20045;-59
2022/03/26 02:08:04;;;;;;;19.65;14.15;;;5.30;99.90;;;;;;5008918;28;20404;-59
2022/03/26 02:10:30;;;;;;;19.02;12.68;;;5.40;99.90;;;;;;5000087;28;20082;-59
2022/03/26 02:12:58;;;;;;;17.05;10.95;;;5.30;99.90;;;;;;5001681;28;20056;-59
2022/03/26 02:15:25;;;;;;;17.13;12.80;;;5.30;99.90;;;;;;5001358;28;20450;-61
2022/03/26 02:17:52;;;;;;;17.83;13.13;;;5.30;99.90;;;;;;5001642;28;20130;-58
2022/03/26 02:20:20;;;;;;;18.48;12.27;;;5.30;99.90;;;;;;4999538;28;20165;-58
2022/03/26 02:22:47;;;;;;;16.95;12.00;;;5.30;99.90;;;;;;5000809;28;20152;-59
2022/03/26 02:25:14;;;;;;;18.27;12.18;;;5.30;99.90;;;;;;4997523;28;20161;-58
2022/03/26 02:27:41;;;;;;;16.60;12.27;;;5.20;99.90;;;;;;5001333;28;20085;-59
2022/03/26 02:30:08;;;;;;;16.50;12.13;;;5.20;99.90;;;;;;5002154;28;20156;-59
2022/03/26 02:32:35;;;;;;;16.85;12.07;;;5.20;99.90;;;;;;5002777;28;20082;-58
2022/03/26 02:35:02;;;;;;;16.38;11.95;;;5.20;99.90;;;;;;5002523;28;20104;-57
2022/03/26 02:37:30;;;;;;;17.58;13.35;;;5.20;99.90;;;;;;5004012;28;20140;-59
2022/03/26 02:39:57;;;;;;;19.45;12.57;;;5.10;99.90;;;;;;5020219;28;20077;-59
2022/03/26 02:42:24;;;;;;;17.05;12.18;;;5.10;99.90;;;;;;5021458;28;20115;-59
2022/03/26 02:44:52;;;;;;;16.10;11.68;;;5.10;99.90;;;;;;5021783;28;20812;-59
2022/03/26 02:47:18;;;;;;;18.40;12.15;;;5.10;99.90;;;;;;5002864;28;20191;-59
2022/03/26 02:49:45;;;;;;;18.05;12.98;;;5.10;99.90;;;;;;5002510;28;20132;-58
2022/03/26 02:52:12;;;;;;;15.30;11.63;;;5.10;99.90;;;;;;5013979;28;20037;-58
2022/03/26 02:54:39;;;;;;;15.77;11.20;;;5.00;99.90;;;;;;5021583;28;20449;-59
2022/03/26 02:57:05;;;;;;;18.00;11.82;;;5.00;99.90;;;;;;5020722;28;20081;-58
2022/03/26 02:59:32;;;;;;;15.10;11.25;;;5.00;99.90;;;;;;5021462;28;20103;-58
2022/03/26 03:01:59;;;;;;;18.75;11.93;;;5.00;99.90;;;;;;5021357;28;20095;-58
2022/03/26 03:04:26;;;;;;;15.90;11.18;;;4.90;99.90;;;;;;5020587;28;20064;-58
2022/03/26 03:06:53;;;;;;;17.13;12.40;;;4.90;99.90;;;;;;5011809;28;20123;-59
2022/03/26 03:09:19;;;;;;;15.02;11.07;;;4.80;99.90;;;;;;5003957;28;20148;-58
2022/03/26 03:11:46;;;;;;;18.63;13.10;;;4.90;99.90;;;;;;5002070;28;20124;-58
2022/03/26 03:14:13;;;;;;;15.93;10.77;;;4.90;99.90;;;;;;5001260;28;20133;-58
2022/03/26 03:16:41;;;;;;;18.33;12.60;;;4.80;99.90;;;;;;5002610;28;20131;-58
2022/03/26 03:19:08;;;;;;;15.77;12.23;;;4.80;99.90;;;;;;5001183;28;20094;-59
2022/03/26 03:21:35;;;;;;;15.38;11.57;;;4.80;99.90;;;;;;5002541;28;20077;-59
2022/03/26 03:24:01;;;;;;;16.52;11.85;;;4.70;99.90;;;;;;5002701;28;20124;-59
2022/03/26 03:26:28;;;;;;;18.50;11.60;;;4.70;99.90;;;;;;5000435;28;20673;-59
2022/03/26 03:28:57;;;;;;;17.17;11.77;;;4.70;99.90;;;;;;5003126;28;20128;-59
2022/03/26 03:31:24;;;;;;;16.70;12.25;;;4.70;99.90;;;;;;5002732;28;20049;-60
2022/03/26 03:33:51;;;;;;;21.73;13.05;;;4.70;99.90;;;;;;5005991;28;20065;-59
2022/03/26 03:36:18;;;;;;;18.27;12.07;;;4.70;99.90;;;;;;5002511;28;20110;-59
2022/03/26 03:38:44;;;;;;;19.23;11.88;;;4.60;99.90;;;;;;5002444;28;20517;-59
2022/03/26 03:41:11;;;;;;;15.70;11.55;;;4.60;99.90;;;;;;5001308;28;20046;-59
2022/03/26 03:43:38;;;;;;;18.55;12.98;;;4.50;99.90;;;;;;5021306;28;20087;-59
2022/03/26 03:46:04;;;;;;;19.25;13.73;;;4.50;99.90;;;;;;5019573;28;20475;-59
2022/03/26 03:48:31;;;;;;;15.77;10.98;;;4.50;99.90;;;;;;5020651;28;20136;-59
2022/03/26 03:50:58;;;;;;;17.20;11.13;;;4.40;99.90;;;;;;5020719;28;20049;-59
2022/03/26 03:53:25;;;;;;;17.83;11.77;;;4.40;99.90;;;;;;5019438;28;20148;-59
2022/03/26 03:55:51;;;;;;;18.45;12.35;;;4.30;99.90;;;;;;5019302;28;20562;-62
2022/03/26 03:58:18;;;;;;;19.48;12.75;;;4.30;99.90;;;;;;5021066;28;20077;-59
2022/03/26 04:00:47;;;;;;;18.77;12.77;;;4.30;99.90;;;;;;5021014;28;20053;-59
2022/03/26 04:03:16;;;;;;;15.93;11.93;;;4.20;99.90;;;;;;5013562;28;20195;-60
2022/03/26 04:05:44;;;;;;;16.55;11.23;;;4.20;99.90;;;;;;5015974;28;20520;-60
2022/03/26 04:08:10;;;;;;;18.60;12.20;;;4.20;99.90;;;;;;5006311;28;20158;-59
2022/03/26 04:10:37;;;;;;;16.38;11.32;;;4.30;99.90;;;;;;5005515;28;20129;-59
2022/03/26 04:13:04;;;;;;;18.45;12.27;;;4.30;99.90;;;;;;5024677;28;20065;-59
2022/03/26 04:15:31;;;;;;;16.63;11.68;;;4.30;99.90;;;;;;5024531;28;20117;-59
2022/03/26 04:17:57;;;;;;;18.63;11.25;;;4.30;99.90;;;;;;5025440;28;20171;-59
2022/03/26 04:20:24;;;;;;;18.20;11.35;;;4.20;99.90;;;;;;5024031;28;20149;-59
2022/03/26 04:22:51;;;;;;;17.30;11.77;;;4.20;99.90;;;;;;5022930;28;20571;-59
2022/03/26 04:25:18;;;;;;;17.75;12.02;;;4.10;99.90;;;;;;5024022;28;20049;-59
2022/03/26 04:27:46;;;;;;;17.13;11.90;;;4.10;99.90;;;;;;5024266;28;20129;-63
2022/03/26 04:30:13;;;;;;;17.95;11.50;;;4.10;99.90;;;;;;5024320;28;20125;-59
2022/03/26 04:32:39;;;;;;;17.50;11.65;;;4.10;99.90;;;;;;5021493;28;20490;-59
2022/03/26 04:35:07;;;;;;;17.40;11.55;;;4.10;99.90;;;;;;5005395;28;20129;-58
2022/03/26 04:37:34;;;;;;;19.23;12.30;;;4.10;99.90;;;;;;5006042;28;20137;-59
2022/03/26 04:40:04;;;;;;;16.65;10.98;;;4.10;99.90;;;;;;5004849;28;20464;-59
2022/03/26 04:42:31;;;;;;;17.95;11.35;;;4.10;99.90;;;;;;5021829;28;20088;-58
2022/03/26 04:44:58;;;;;;;18.73;12.07;;;4.00;99.90;;;;;;5023502;28;20176;-59
2022/03/26 04:47:24;;;;;;;18.75;12.25;;;4.10;99.90;;;;;;5024442;28;20484;-59
2022/03/26 04:49:51;;;;;;;17.05;11.52;;;4.10;99.90;;;;;;5023232;28;20943;-59
2022/03/26 04:52:18;;;;;;;17.70;11.40;;;4.10;99.90;;;;;;5024192;28;20827;-59
2022/03/26 04:54:46;;;;;;;17.42;12.18;;;4.10;99.90;;;;;;5022956;28;20124;-59
2022/03/26 04:57:13;;;;;;;18.35;12.38;;;4.10;99.90;;;;;;5018320;28;20591;-59
2022/03/26 04:59:40;;;;;;;17.33;11.23;;;4.00;99.90;;;;;;5022722;28;20743;-59
2022/03/26 05:02:07;;;;;;;18.70;13.02;;;4.00;99.90;;;;;;5023727;28;20084;-59
2022/03/26 05:04:34;;;;;;;16.85;11.80;;;4.00;99.90;;;;;;5024725;28;20057;-59
2022/03/26 05:07:45;;;;;;;18.73;11.80;;;4.00;99.90;;;;;;5025611;28;20089;-59
2022/03/26 05:09:47;;;;;;;16.75;11.40;;;3.90;99.90;;;;;;5024981;28;20183;-59
2022/03/26 05:12:14;;;;;;;19.60;12.35;;;3.90;99.90;;;;;;5023606;28;20596;-59
2022/03/26 05:14:41;;;;;;;17.95;12.07;;;3.90;99.90;;;;;;5023710;28;20088;-59
2022/03/26 05:17:08;;;;;;;17.73;11.80;;;3.90;99.90;;;;;;5024979;28;20123;-59
2022/03/26 05:19:34;;;;;;;17.30;12.35;;;3.90;99.90;;;;;;5025044;28;20517;-59
2022/03/26 05:22:01;;;;;;;17.10;11.77;;;3.90;99.90;;;;;;5025209;28;20127;-59
2022/03/26 05:24:28;;;;;;;19.08;11.95;;;3.90;99.90;;;;;;5024669;28;20124;-58
2022/03/26 05:26:55;;;;;;;18.65;13.05;;;3.90;99.90;;;;;;5023331;28;20085;-59
2022/03/26 05:29:22;;;;;;;19.30;11.95;;;3.90;99.90;;;;;;5025235;28;20052;-59
2022/03/26 05:31:48;;;;;;;17.77;12.15;;;3.90;99.90;;;;;;5024085;28;20119;-59
2022/03/26 05:34:15;;;;;;;18.55;12.30;;;3.80;99.90;;;;;;5024198;28;20207;-59
2022/03/26 05:36:42;;;;;;;16.85;11.82;;;3.80;99.90;;;;;;5019463;28;20122;-59
2022/03/26 05:39:09;;;;;;;18.33;12.55;;;3.80;99.90;;;;;;5023590;28;20144;-60
2022/03/26 05:41:40;;;;;;;18.25;12.85;;;3.80;99.90;;;;;;5023638;28;20325;-60
2022/03/26 05:44:08;;;;;;;19.42;13.35;;;3.80;99.90;;;;;;5023172;28;20128;-59
2022/03/26 05:46:34;;;;;;;18.67;12.38;;;3.70;99.90;;;;;;5024240;28;20514;-59
2022/03/26 05:49:02;;;;;;;17.02;12.20;;;3.60;99.90;;;;;;5022788;28;20507;-59
2022/03/26 05:51:29;;;;;;;18.13;11.68;;;3.60;99.90;;;;;;5023529;28;20453;-59
2022/03/26 05:53:56;;;;;;;19.80;13.18;;;3.70;99.90;;;;;;5024317;28;20136;-59
2022/03/26 05:56:23;;;;;;;17.75;12.60;;;3.70;99.90;;;;;;5022363;28;20049;-59
2022/03/26 05:58:50;;;;;;;17.55;12.20;;;3.60;99.90;;;;;;5024494;28;20125;-60
2022/03/26 06:01:17;;;;;;;18.17;11.82;;;3.60;99.90;;;;;;5023846;28;20128;-60
2022/03/26 06:03:44;;;;;;;18.25;12.52;;;3.60;99.90;;;;;;5012859;28;20053;-59
2022/03/26 06:06:11;;;;;;;18.20;12.07;;;3.60;99.90;;;;;;5018929;28;20123;-59
2022/03/26 06:08:37;;;;;;;18.70;11.65;;;3.70;99.90;;;;;;5022503;28;20556;-59
2022/03/26 06:11:04;;;;;;;17.80;12.23;;;3.70;99.90;;;;;;5022435;28;20053;-60
2022/03/26 06:13:31;;;;;;;20.45;12.50;;;3.70;99.90;;;;;;5020969;28;20540;-60
2022/03/26 06:15:57;;;;;;;18.17;12.18;;;3.70;99.90;;;;;;5021750;28;20110;-60
2022/03/26 06:18:25;;;;;;;18.70;12.68;;;3.80;99.90;;;;;;5022890;28;20045;-59
2022/03/26 06:20:52;;;;;;;17.42;12.07;;;3.80;99.90;;;;;;5022014;28;20546;-59
2022/03/26 06:23:19;;;;;;;18.33;12.30;;;3.90;99.90;;;;;;5022169;28;20046;-59
2022/03/26 06:25:45;;;;;;;19.08;13.00;;;3.80;99.90;;;;;;5014813;28;20514;-59
2022/03/26 06:28:13;;;;;;;18.20;12.95;;;3.80;99.90;;;;;;5017509;28;20045;-60
2022/03/26 06:30:40;;;;;;;18.13;12.30;;;3.90;99.90;;;;;;5021127;28;20095;-59
2022/03/26 06:33:07;;;;;;;18.50;12.32;;;3.90;99.90;;;;;;5021524;28;20072;-59
2022/03/26 06:35:34;;;;;;;19.15;13.10;;;4.00;99.90;;;;;;5020932;28;20088;-60
2022/03/26 06:38:00;;;;;;;19.70;12.68;;;4.00;99.90;;;;;;5021732;28;20053;-60
2022/03/26 06:40:27;;;;;;;20.73;13.07;;;4.00;99.90;;;;;;5021397;28;20053;-59
2022/03/26 06:42:54;;;;;;;19.05;12.55;;;4.10;99.90;;;;;;5019865;28;20124;-60
2022/03/26 06:45:21;;;;;;;21.50;13.18;;;4.20;99.90;;;;;;5017825;28;20156;-59
2022/03/26 06:47:47;;;;;;;18.17;12.20;;;4.20;99.90;;;;;;5019922;28;20496;-58
2022/03/26 06:50:14;;;;;;;17.92;12.68;;;4.20;99.90;;;;;;5020254;28;20484;-59
2022/03/26 06:52:41;;;;;;;20.98;13.38;;;4.20;99.90;;;;;;5018597;28;20056;-59
2022/03/26 06:55:08;;;;;;;22.75;12.68;;;4.30;99.90;;;;;;5009898;28;20053;-56
2022/03/26 06:57:36;;;;;;;19.48;12.98;;;4.30;99.90;;;;;;5018709;28;20133;-59
2022/03/26 07:00:03;;;;;;;18.23;12.70;;;4.40;99.90;;;;;;5015427;28;20077;-59
2022/03/26 07:02:30;;;;;;;19.73;13.23;;;4.50;99.90;;;;;;5011302;28;20134;-59
2022/03/26 07:04:57;;;;;;;21.17;13.48;;;4.50;99.90;;;;;;5011192;28;20065;-59
2022/03/26 07:07:25;;;;;;;19.58;13.88;;;4.50;99.90;;;;;;5010469;28;20266;-59
2022/03/26 07:09:51;;;;;;;20.77;14.27;;;4.60;99.90;;;;;;5012151;28;20144;-59
2022/03/26 07:12:18;;;;;;;21.40;13.55;;;4.70;99.90;;;;;;5015295;28;20123;-59
2022/03/26 07:14:45;;;;;;;19.95;13.25;;;4.80;99.90;;;;;;5015097;28;20501;-59
2022/03/26 07:17:12;;;;;;;22.48;14.23;;;4.80;99.90;;;;;;5018211;28;20557;-59
2022/03/26 07:19:39;;;;;;;21.08;13.48;;;4.90;99.90;;;;;;5012213;28;20139;-59
2022/03/26 07:22:06;;;;;;;23.17;15.27;;;4.90;99.90;;;;;;5011381;28;20092;-59
2022/03/26 07:24:33;;;;;;;18.10;12.98;;;4.90;99.90;;;;;;5019187;28;20072;-60
2022/03/26 07:27:00;;;;;;;20.60;13.80;;;5.00;99.90;;;;;;5014045;28;20123;-59
2022/03/26 07:29:27;;;;;;;22.25;14.45;;;5.00;99.90;;;;;;5006631;28;20052;-59
2022/03/26 07:31:55;;;;;;;22.20;16.08;;;5.10;99.90;;;;;;5015329;28;20883;-60
2022/03/26 07:34:22;;;;;;;21.92;14.48;;;5.10;99.90;;;;;;5015295;28;20057;-60
2022/03/26 07:36:49;;;;;;;20.33;14.32;;;5.20;99.90;;;;;;5016526;28;20120;-60
2022/03/26 07:39:17;;;;;;;19.95;13.15;;;5.30;99.90;;;;;;5017977;28;20209;-60
2022/03/26 07:41:44;;;;;;;20.55;13.02;;;5.40;99.90;;;;;;5007758;28;20052;-60
2022/03/26 07:44:10;;;;;;;21.48;14.73;;;5.50;99.90;;;;;;5002660;28;20242;-60
2022/03/26 07:46:37;;;;;;;22.92;14.75;;;5.50;99.90;;;;;;5002196;28;20060;-60
2022/03/26 07:49:05;;;;;;;21.00;13.85;;;5.60;99.90;;;;;;5002294;28;20133;-60
2022/03/26 07:51:31;;;;;;;21.77;14.30;;;5.70;99.90;;;;;;5001659;28;20054;-59
2022/03/26 07:53:58;;;;;;;22.08;15.60;;;5.80;99.90;;;;;;5005782;28;20141;-60
2022/03/26 07:56:25;;;;;;;21.88;13.60;;;5.80;99.90;;;;;;5006210;28;20129;-60
2022/03/26 07:58:52;;;;;;;23.30;15.35;;;5.90;99.90;;;;;;5001094;28;20220;-60
2022/03/26 08:01:19;;;;;;;20.08;13.98;;;6.00;99.90;;;;;;5016429;28;20077;-60
2022/03/26 08:03:49;;;;;;;19.23;13.20;;;6.10;99.90;;;;;;5021066;28;20538;-61
2022/03/26 08:06:16;;;;;;;23.38;14.32;;;6.20;99.90;;;;;;5020597;28;20436;-60
2022/03/26 08:08:43;;;;;;;21.73;14.60;;;6.30;99.90;;;;;;5019982;28;20107;-60
2022/03/26 08:11:10;;;;;;;21.70;14.63;;;6.30;99.90;;;;;;5016577;28;20081;-60
2022/03/26 08:13:36;;;;;;;19.70;14.02;;;6.40;99.90;;;;;;5006507;28;20051;-60
2022/03/26 08:16:03;;;;;;;20.88;14.10;;;6.50;99.90;;;;;;5011540;28;20076;-62
2022/03/26 08:18:30;;;;;;;19.65;13.57;;;6.70;99.90;;;;;;5013380;28;20381;-60
2022/03/26 08:21:03;;;;;;;21.05;14.60;;;6.70;99.90;;;;;;5013600;28;20108;-61
2022/03/26 08:23:29;;;;;;;20.58;15.20;;;6.90;99.90;;;;;;5014010;28;20096;-60
2022/03/26 08:28:41;;;;;;;23.60;17.55;;;7.30;99.90;;;;;;5020206;28;20835;-60
2022/03/26 08:31:10;;;;;;;30.77;19.85;;;7.50;99.90;;;;;;5017846;28;20049;-60
2022/03/26 08:33:37;;;;;;;25.05;19.10;;;7.60;99.90;;;;;;5017727;28;20064;-60
2022/03/26 08:36:04;;;;;;;26.05;18.02;;;7.80;99.90;;;;;;5018046;28;20148;-60
2022/03/26 08:38:31;;;;;;;26.65;17.13;;;7.90;99.90;;;;;;5019063;28;20512;-60
2022/03/26 08:40:58;;;;;;;27.98;17.35;;;8.00;99.90;;;;;;4997351;28;20536;-60
2022/03/26 08:43:25;;;;;;;27.52;18.38;;;8.10;99.90;;;;;;5009327;28;20140;-60
2022/03/26 08:45:51;;;;;;;27.00;17.73;;;8.20;99.90;;;;;;4997177;28;20430;-60
2022/03/26 08:48:18;;;;;;;25.02;17.33;;;8.30;99.90;;;;;;5006010;28;20245;-60
2022/03/26 08:50:45;;;;;;;26.40;18.38;;;8.40;99.90;;;;;;5018704;28;20159;-60
2022/03/26 08:53:12;;;;;;;26.52;17.25;;;8.50;99.90;;;;;;5002680;28;20065;-60
2022/03/26 08:55:39;;;;;;;25.23;17.83;;;8.60;99.90;;;;;;5017116;28;20175;-60
2022/03/26 08:58:07;;;;;;;24.50;18.02;;;8.70;99.90;;;;;;5010791;28;20132;-60
2022/03/26 09:00:35;;;;;;;24.50;17.25;;;8.70;99.90;;;;;;5011868;28;20057;-60
2022/03/26 09:03:03;;;;;;;23.98;17.58;;;8.80;99.90;;;;;;5012540;28;20454;-60
2022/03/26 09:05:30;;;;;;;24.52;17.67;;;8.90;99.90;;;;;;5012312;28;20146;-60
2022/03/26 09:07:56;;;;;;;26.83;18.25;;;9.00;99.90;;;;;;5006178;28;20056;-60
2022/03/26 09:10:23;;;;;;;22.45;15.43;;;9.10;99.90;;;;;;5009460;28;20544;-60
2022/03/26 09:12:50;;;;;;;23.42;16.60;;;9.20;99.90;;;;;;5001900;28;20149;-60
2022/03/26 09:15:17;;;;;;;19.92;14.60;;;9.30;99.90;;;;;;5005259;28;20502;-60
2022/03/26 09:17:43;;;;;;;21.65;16.13;;;9.40;99.90;;;;;;5008739;28;20463;-60
2022/03/26 09:20:10;;;;;;;21.00;16.55;;;9.40;99.90;;;;;;5018320;28;20323;-60
2022/03/26 09:22:37;;;;;;;21.52;16.27;;;9.50;99.90;;;;;;5009204;28;20267;-60
2022/03/26 09:25:04;;;;;;;21.60;16.60;;;9.60;99.90;;;;;;5014787;28;20068;-60
2022/03/26 09:27:31;;;;;;;22.67;17.58;;;9.60;99.90;;;;;;5010966;28;20144;-58
2022/03/26 09:29:58;;;;;;;22.67;16.88;;;9.70;99.90;;;;;;5018862;28;21136;-60
2022/03/26 09:32:25;;;;;;;21.45;17.02;;;9.80;99.90;;;;;;5019053;28;20055;-60
2022/03/26 09:34:52;;;;;;;23.83;16.38;;;9.90;99.90;;;;;;5019979;28;20607;-60
2022/03/26 09:37:19;;;;;;;20.98;15.27;;;10.00;99.90;;;;;;5017148;28;20053;-60
2022/03/26 09:39:46;;;;;;;24.58;17.73;;;10.10;99.90;;;;;;5010973;28;20081;-60
2022/03/26 09:42:15;;;;;;;23.13;16.98;;;10.20;99.90;;;;;;4999979;28;20181;-60
2022/03/26 09:44:44;;;;;;;22.17;16.60;;;10.30;99.90;;;;;;5014245;28;20136;-60
2022/03/26 09:47:11;;;;;;;20.17;15.57;;;10.40;99.90;;;;;;5012837;28;20133;-60
2022/03/26 09:49:38;;;;;;;19.55;14.60;;;10.50;99.90;;;;;;5007795;28;20218;-60
2022/03/26 09:52:06;;;;;;;22.42;17.52;;;10.70;99.90;;;;;;5006650;28;20092;-60
2022/03/26 09:54:34;;;;;;;23.80;18.58;;;10.80;99.90;;;;;;5011514;28;20068;-59
2022/03/26 09:57:01;;;;;;;23.05;16.70;;;10.90;99.90;;;;;;5008732;28;20140;-59
2022/03/26 09:59:27;;;;;;;25.25;18.23;;;11.00;99.90;;;;;;5017601;28;20148;-59
2022/03/26 10:01:54;;;;;;;22.02;16.70;;;11.10;99.90;;;;;;5014951;28;20092;-60
2022/03/26 10:04:22;;;;;;;24.00;18.30;;;11.20;99.90;;;;;;5018884;28;20298;-59
2022/03/26 10:06:53;;;;;;;23.23;18.17;;;11.40;99.90;;;;;;5018967;28;20049;-60
2022/03/26 10:09:27;;;;;;;27.60;19.58;;;11.50;99.90;;;;;;5007956;28;20050;-60
2022/03/26 10:12:10;;;;;;;22.63;17.15;;;11.60;99.90;;;;;;5007329;28;20046;-60
2022/03/26 10:14:59;;;;;;;21.08;16.10;;;11.70;99.90;;;;;;4999661;28;20511;-62
2022/03/26 10:17:27;;;;;;;16.88;13.55;;;11.80;99.90;;;;;;4999515;28;20082;-59
2022/03/26 10:19:55;;;;;;;19.92;15.20;;;12.00;99.90;;;;;;5010431;28;20486;-59
2022/03/26 10:22:28;;;;;;;19.73;14.00;;;12.10;99.90;;;;;;5003553;28;20357;-59
2022/03/26 10:24:57;;;;;;;20.48;15.18;;;12.30;99.90;;;;;;5018938;28;20053;-60
2022/03/26 10:27:24;;;;;;;18.00;15.23;;;12.40;99.90;;;;;;5011388;28;20046;-59
2022/03/26 10:29:55;;;;;;;19.38;13.98;;;12.50;99.90;;;;;;5008075;28;20081;-60
2022/03/26 10:32:39;;;;;;;16.67;13.35;;;12.60;99.90;;;;;;5016413;28;20153;-59
2022/03/26 10:35:21;;;;;;;14.77;12.30;;;12.70;99.90;;;;;;5004271;28;20092;-57
2022/03/26 10:37:51;;;;;;;19.80;12.30;;;12.80;99.90;;;;;;5001906;28;20081;-62
2022/03/26 10:40:27;;;;;;;18.02;12.98;;;13.00;99.90;;;;;;5006742;28;20061;-61
2022/03/26 10:43:05;;;;;;;18.67;13.85;;;13.10;99.90;;;;;;4997833;28;20108;-61
2022/03/26 10:45:33;;;;;;;17.92;13.98;;;13.10;99.90;;;;;;5003252;28;20041;-60
2022/03/26 10:48:01;;;;;;;21.27;15.07;;;13.20;99.90;;;;;;5005073;28;20577;-61
2022/03/26 10:50:33;;;;;;;18.30;13.80;;;13.30;99.90;;;;;;4997581;28;20140;-60
2022/03/26 10:53:14;;;;;;;18.15;13.18;;;13.30;99.90;;;;;;4999864;28;20135;-60
2022/03/26 10:55:43;;;;;;;17.48;12.18;;;13.40;99.90;;;;;;4998519;28;20112;-60
2022/03/26 10:58:10;;;;;;;15.68;12.60;;;13.50;99.90;;;;;;4998652;28;20049;-60
2022/03/26 11:00:37;;;;;;;17.70;12.57;;;13.70;99.90;;;;;;4998814;28;20211;-61
2022/03/26 11:03:04;;;;;;;14.02;11.50;;;13.80;99.90;;;;;;5010067;28;20114;-61
2022/03/26 11:05:31;;;;;;;17.05;12.30;;;13.90;99.90;;;;;;5009405;28;20052;-61
2022/03/26 11:07:58;;;;;;;16.92;13.23;;;14.10;99.90;;;;;;4982925;28;20056;-61
2022/03/26 11:10:25;;;;;;;16.65;13.20;;;14.10;99.90;;;;;;5012420;28;20273;-60
2022/03/26 11:12:52;;;;;;;14.68;12.02;;;14.10;99.90;;;;;;5013162;28;20049;-60
2022/03/26 11:15:27;;;;;;;17.48;13.50;;;14.30;99.90;;;;;;5002734;28;20049;-61
2022/03/26 11:18:33;;;;;;;15.35;12.27;;;14.40;99.90;;;;;;4997575;28;20401;-60
2022/03/26 11:21:07;;;;;;;17.00;13.13;;;14.50;99.90;;;;;;4998157;28;20141;-61
2022/03/26 11:24:12;;;;;;;15.45;13.07;;;14.50;99.90;;;;;;4999290;28;20513;-61
2022/03/26 11:26:54;;;;;;;18.00;12.48;;;14.70;99.90;;;;;;5002332;28;20069;-61
2022/03/26 11:29:43;;;;;;;14.77;11.70;;;14.80;99.90;;;;;;5010472;28;20049;-61
2022/03/26 11:32:27;;;;;;;14.43;11.48;;;14.90;99.90;;;;;;5028803;28;20615;-61
2022/03/26 11:34:58;;;;;;;16.52;11.63;;;15.20;99.70;;;;;;5003875;28;20057;-61
2022/03/26 11:37:25;;;;;;;12.77;10.55;;;15.40;99.40;;;;;;5013561;28;20064;-60
2022/03/26 11:39:52;;;;;;;10.55;8.80;;;15.60;98.70;;;;;;5016942;28;20236;-61
2022/03/26 11:42:35;;;;;;;13.10;9.20;;;15.70;98.30;;;;;;5013233;28;20521;-61
2022/03/26 11:51:24;;;;;;;8.90;7.13;;;16.40;96.70;;;;;;4998486;28;20077;-61
2022/03/26 11:53:58;;;;;;;7.45;6.00;;;16.60;95.80;;;;;;5011557;28;20148;-61
2022/03/26 11:56:31;;;;;;;8.43;6.65;;;16.80;95.80;;;;;;5015230;28;20136;-61
2022/03/26 11:59:06;;;;;;;7.25;6.15;;;16.90;95.10;;;;;;5017034;28;20060;-60
2022/03/26 12:01:41;;;;;;;8.95;6.10;;;17.10;94.30;;;;;;5017585;28;20175;-61
2022/03/26 12:04:36;;;;;;;7.10;6.10;;;17.30;94.10;;;;;;5012077;28;20065;-61
2022/03/26 12:07:03;;;;;;;7.82;5.93;;;17.50;93.90;;;;;;4999094;28;20049;-61
2022/03/26 12:09:37;;;;;;;6.78;5.97;;;17.60;93.50;;;;;;5005872;28;20085;-61
2022/03/26 12:12:16;;;;;;;6.43;5.13;;;17.80;93.00;;;;;;4996638;28;20157;-61
2022/03/26 12:15:05;;;;;;;7.60;5.32;;;18.00;92.70;;;;;;4997520;28;20485;-61
2022/03/26 12:18:24;;;;;;;8.82;5.07;;;18.10;92.00;;;;;;4998842;28;20089;-61
2022/03/26 12:20:51;;;;;;;6.40;4.78;;;18.20;91.80;;;;;;5007046;28;20085;-62
2022/03/26 12:23:28;;;;;;;6.10;4.65;;;18.40;91.80;;;;;;5025151;28;20137;-60
2022/03/26 12:26:06;;;;;;;4.50;3.53;;;18.90;91.30;;;;;;5019471;28;20554;-61
2022/03/26 12:28:36;;;;;;;4.43;4.03;;;19.20;90.20;;;;;;5007523;28;20053;-61
2022/03/26 12:31:10;;;;;;;4.88;3.70;;;19.20;89.40;;;;;;5019103;28;20143;-61
2022/03/26 12:33:50;;;;;;;5.07;3.70;;;19.50;88.30;;;;;;5010772;28;20062;-61
2022/03/26 12:36:18;;;;;;;5.45;3.75;;;19.90;86.60;;;;;;5007530;28;20066;-61
2022/03/26 12:38:47;;;;;;;3.83;2.90;;;20.10;85.10;;;;;;4984736;28;20046;-61
2022/03/26 12:41:14;;;;;;;4.43;3.15;;;20.30;84.00;;;;;;5005828;28;20696;-61
2022/03/26 12:43:41;;;;;;;4.50;3.85;;;20.60;83.20;;;;;;5007635;28;20785;-61
2022/03/26 12:46:13;;;;;;;5.25;4.30;;;20.40;81.10;;;;;;5017537;28;20045;-61
2022/03/26 12:48:40;;;;;;;5.00;3.95;;;20.30;81.80;;;;;;5011207;28;20060;-61
2022/03/26 12:51:07;;;;;;;5.00;4.00;;;20.50;80.80;;;;;;5012385;28;20136;-61